sensor_id;sensor_type;location;lat;lon;timestamp;temperature;humidity
74873;HTU21D;68776;44.762;37.698;2023-10-31T07:41:39;21.75;62.15
74873;HTU21D;68776;44.762;37.698;2023-10-31T07:42:44;21.53;62.34
74873;HTU21D;68776;44.762;37.698;2023-10-31T07:43:45;21.45;62.17
74873;HTU21D;68776;44.762;37.698;2023-10-31T07:44:46;21.43;61.75
74873;HTU21D;68776;44.762;37.698;2023-10-31T07:45:47;21.43;61.27
74873;HTU21D;68776;44.762;37.698;2023-10-31T07:46:48;21.46;60.76
74873;HTU21D;68776;44.762;37.698;2023-10-31T07:47:49;21.49;60.23
74873;HTU21D;68776;44.762;37.698;2023-10-31T07:48:50;21.54;59.70
74873;HTU21D;68776;44.762;37.698;2023-10-31T07:49:51;21.61;59.18
74873;HTU21D;68776;44.762;37.698;2023-10-31T07:50:54;21.65;58.65
74873;HTU21D;68776;44.762;37.698;2023-10-31T07:51:55;21.70;58.22
74873;HTU21D;68776;44.762;37.698;2023-10-31T07:52:56;21.77;57.86
74873;HTU21D;68776;44.762;37.698;2023-10-31T07:53:57;21.79;57.49
74873;HTU21D;68776;44.762;37.698;2023-10-31T07:54:59;21.84;57.12
74873;HTU21D;68776;44.762;37.698;2023-10-31T07:56:00;21.90;56.76
74873;HTU21D;68776;44.762;37.698;2023-10-31T07:57:01;21.94;56.44
74873;HTU21D;68776;44.762;37.698;2023-10-31T07:58:02;21.97;56.13
74873;HTU21D;68776;44.762;37.698;2023-10-31T07:59:03;22.01;55.81
74873;HTU21D;68776;44.762;37.698;2023-10-31T08:00:08;22.04;55.58
74873;HTU21D;68776;44.762;37.698;2023-10-31T08:01:13;22.08;55.26
74873;HTU21D;68776;44.762;37.698;2023-10-31T08:02:13;22.10;55.00
74873;HTU21D;68776;44.762;37.698;2023-10-31T08:03:15;22.13;54.79
74873;HTU21D;68776;44.762;37.698;2023-10-31T08:04:16;22.17;54.54
74873;HTU21D;68776;44.762;37.698;2023-10-31T08:05:18;22.18;54.30
74873;HTU21D;68776;44.762;37.698;2023-10-31T08:06:19;22.21;54.12
74873;HTU21D;68776;44.762;37.698;2023-10-31T08:07:20;22.23;53.92
74873;HTU21D;68776;44.762;37.698;2023-10-31T08:08:21;22.25;53.80
74873;HTU21D;68776;44.762;37.698;2023-10-31T08:09:23;22.27;53.69
74873;HTU21D;68776;44.762;37.698;2023-10-31T08:10:24;22.29;53.57
74873;HTU21D;68776;44.762;37.698;2023-10-31T08:11:25;22.33;53.41
74873;HTU21D;68776;44.762;37.698;2023-10-31T08:12:26;22.36;53.26
74873;HTU21D;68776;44.762;37.698;2023-10-31T08:13:27;22.38;53.12
74873;HTU21D;68776;44.762;37.698;2023-10-31T08:14:28;22.40;52.95
74873;HTU21D;68776;44.762;37.698;2023-10-31T08:15:29;22.40;52.72
74873;HTU21D;68776;44.762;37.698;2023-10-31T08:16:30;22.43;52.59
74873;HTU21D;68776;44.762;37.698;2023-10-31T08:17:31;22.47;52.44
74873;HTU21D;68776;44.762;37.698;2023-10-31T08:18:32;22.49;52.27
74873;HTU21D;68776;44.762;37.698;2023-10-31T08:19:33;22.51;52.16
74873;HTU21D;68776;44.762;37.698;2023-10-31T08:20:33;22.53;52.07
74873;HTU21D;68776;44.762;37.698;2023-10-31T08:21:35;22.54;51.95
74873;HTU21D;68776;44.762;37.698;2023-10-31T08:22:39;22.57;51.84
74873;HTU21D;68776;44.762;37.698;2023-10-31T08:23:40;22.60;51.73
74873;HTU21D;68776;44.762;37.698;2023-10-31T08:24:41;22.61;51.63
74873;HTU21D;68776;44.762;37.698;2023-10-31T08:25:42;22.64;51.53
74873;HTU21D;68776;44.762;37.698;2023-10-31T08:26:43;22.65;51.38
74873;HTU21D;68776;44.762;37.698;2023-10-31T08:27:44;22.67;51.32
74873;HTU21D;68776;44.762;37.698;2023-10-31T08:28:45;22.68;51.28
74873;HTU21D;68776;44.762;37.698;2023-10-31T08:29:46;22.70;51.21
74873;HTU21D;68776;44.762;37.698;2023-10-31T08:30:47;22.70;51.18
74873;HTU21D;68776;44.762;37.698;2023-10-31T08:31:51;22.72;51.07
74873;HTU21D;68776;44.762;37.698;2023-10-31T08:32:52;22.75;51.01
74873;HTU21D;68776;44.762;37.698;2023-10-31T08:33:54;22.76;50.94
74873;HTU21D;68776;44.762;37.698;2023-10-31T08:34:55;22.77;50.89
74873;HTU21D;68776;44.762;37.698;2023-10-31T08:35:57;22.79;50.88
74873;HTU21D;68776;44.762;37.698;2023-10-31T08:36:58;22.79;50.83
74873;HTU21D;68776;44.762;37.698;2023-10-31T08:37:59;22.81;50.77
74873;HTU21D;68776;44.762;37.698;2023-10-31T08:39:00;22.83;50.70
74873;HTU21D;68776;44.762;37.698;2023-10-31T08:40:01;22.85;50.65
74873;HTU21D;68776;44.762;37.698;2023-10-31T08:41:04;22.86;50.59
74873;HTU21D;68776;44.762;37.698;2023-10-31T08:42:05;22.86;50.53
74873;HTU21D;68776;44.762;37.698;2023-10-31T08:43:06;22.88;50.48
74873;HTU21D;68776;44.762;37.698;2023-10-31T08:44:07;22.90;50.40
74873;HTU21D;68776;44.762;37.698;2023-10-31T08:45:08;22.91;50.30
74873;HTU21D;68776;44.762;37.698;2023-10-31T08:46:10;22.94;50.26
74873;HTU21D;68776;44.762;37.698;2023-10-31T08:47:11;22.96;50.21
74873;HTU21D;68776;44.762;37.698;2023-10-31T08:48:12;22.96;50.16
74873;HTU21D;68776;44.762;37.698;2023-10-31T08:49:17;22.98;50.08
74873;HTU21D;68776;44.762;37.698;2023-10-31T08:50:18;22.99;50.05
74873;HTU21D;68776;44.762;37.698;2023-10-31T08:51:19;23.01;49.93
74873;HTU21D;68776;44.762;37.698;2023-10-31T08:52:20;23.02;49.85
74873;HTU21D;68776;44.762;37.698;2023-10-31T08:53:23;23.05;49.79
74873;HTU21D;68776;44.762;37.698;2023-10-31T08:54:23;23.08;49.75
74873;HTU21D;68776;44.762;37.698;2023-10-31T08:55:24;23.09;49.70
74873;HTU21D;68776;44.762;37.698;2023-10-31T08:56:25;23.11;49.64
74873;HTU21D;68776;44.762;37.698;2023-10-31T08:57:28;23.11;49.57
74873;HTU21D;68776;44.762;37.698;2023-10-31T08:58:28;23.13;49.47
74873;HTU21D;68776;44.762;37.698;2023-10-31T08:59:30;23.16;49.37
74873;HTU21D;68776;44.762;37.698;2023-10-31T09:00:31;23.18;49.24
74873;HTU21D;68776;44.762;37.698;2023-10-31T09:01:32;23.22;49.17
74873;HTU21D;68776;44.762;37.698;2023-10-31T09:02:37;23.24;49.06
74873;HTU21D;68776;44.762;37.698;2023-10-31T09:03:38;23.25;49.00
74873;HTU21D;68776;44.762;37.698;2023-10-31T09:04:39;23.28;48.93
74873;HTU21D;68776;44.762;37.698;2023-10-31T09:05:40;23.30;48.88
74873;HTU21D;68776;44.762;37.698;2023-10-31T09:06:41;23.31;48.82
74873;HTU21D;68776;44.762;37.698;2023-10-31T09:07:42;23.35;48.80
74873;HTU21D;68776;44.762;37.698;2023-10-31T09:08:43;23.35;48.75
74873;HTU21D;68776;44.762;37.698;2023-10-31T09:09:44;23.37;48.72
74873;HTU21D;68776;44.762;37.698;2023-10-31T09:10:45;23.37;48.65
74873;HTU21D;68776;44.762;37.698;2023-10-31T09:11:47;23.40;48.60
74873;HTU21D;68776;44.762;37.698;2023-10-31T09:12:48;23.42;48.53
74873;HTU21D;68776;44.762;37.698;2023-10-31T09:13:49;23.43;48.49
74873;HTU21D;68776;44.762;37.698;2023-10-31T09:14:50;23.44;48.44
74873;HTU21D;68776;44.762;37.698;2023-10-31T09:15:51;23.46;48.41
74873;HTU21D;68776;44.762;37.698;2023-10-31T09:16:52;23.47;48.41
74873;HTU21D;68776;44.762;37.698;2023-10-31T09:17:53;23.49;48.40
74873;HTU21D;68776;44.762;37.698;2023-10-31T09:18:54;23.50;48.37
74873;HTU21D;68776;44.762;37.698;2023-10-31T09:19:55;23.52;48.34
74873;HTU21D;68776;44.762;37.698;2023-10-31T09:20:56;23.54;48.32
74873;HTU21D;68776;44.762;37.698;2023-10-31T09:21:57;23.55;48.30
74873;HTU21D;68776;44.762;37.698;2023-10-31T09:22:58;23.55;48.26
74873;HTU21D;68776;44.762;37.698;2023-10-31T09:23:59;23.56;48.24
74873;HTU21D;68776;44.762;37.698;2023-10-31T09:25:00;23.58;48.19
74873;HTU21D;68776;44.762;37.698;2023-10-31T09:26:03;23.60;48.18
74873;HTU21D;68776;44.762;37.698;2023-10-31T09:27:04;23.60;48.12
74873;HTU21D;68776;44.762;37.698;2023-10-31T09:28:05;23.61;48.10
74873;HTU21D;68776;44.762;37.698;2023-10-31T09:29:06;23.65;48.02
74873;HTU21D;68776;44.762;37.698;2023-10-31T09:30:07;23.66;47.94
74873;HTU21D;68776;44.762;37.698;2023-10-31T09:31:09;23.66;47.88
74873;HTU21D;68776;44.762;37.698;2023-10-31T09:32:10;23.67;47.84
74873;HTU21D;68776;44.762;37.698;2023-10-31T09:33:11;23.68;47.81
74873;HTU21D;68776;44.762;37.698;2023-10-31T09:34:12;23.70;47.77
74873;HTU21D;68776;44.762;37.698;2023-10-31T09:35:14;23.71;47.69
74873;HTU21D;68776;44.762;37.698;2023-10-31T09:36:16;23.72;47.64
74873;HTU21D;68776;44.762;37.698;2023-10-31T09:37:17;23.73;47.60
74873;HTU21D;68776;44.762;37.698;2023-10-31T09:38:18;23.74;47.54
74873;HTU21D;68776;44.762;37.698;2023-10-31T09:39:19;23.75;47.45
74873;HTU21D;68776;44.762;37.698;2023-10-31T09:40:21;23.79;47.41
74873;HTU21D;68776;44.762;37.698;2023-10-31T09:41:22;23.80;47.41
74873;HTU21D;68776;44.762;37.698;2023-10-31T09:42:23;23.81;47.39
74873;HTU21D;68776;44.762;37.698;2023-10-31T09:43:24;23.83;47.37
74873;HTU21D;68776;44.762;37.698;2023-10-31T09:44:25;23.85;47.37
74873;HTU21D;68776;44.762;37.698;2023-10-31T09:45:26;23.84;47.34
74873;HTU21D;68776;44.762;37.698;2023-10-31T09:46:28;23.86;47.30
74873;HTU21D;68776;44.762;37.698;2023-10-31T09:47:30;23.87;47.29
74873;HTU21D;68776;44.762;37.698;2023-10-31T09:48:32;23.87;47.27
74873;HTU21D;68776;44.762;37.698;2023-10-31T09:49:34;23.90;47.25
74873;HTU21D;68776;44.762;37.698;2023-10-31T09:50:36;23.90;47.23
74873;HTU21D;68776;44.762;37.698;2023-10-31T09:51:38;23.91;47.18
74873;HTU21D;68776;44.762;37.698;2023-10-31T09:52:40;23.91;47.16
74873;HTU21D;68776;44.762;37.698;2023-10-31T09:53:44;23.94;47.14
74873;HTU21D;68776;44.762;37.698;2023-10-31T09:54:46;23.95;47.11
74873;HTU21D;68776;44.762;37.698;2023-10-31T09:55:48;23.96;47.08
74873;HTU21D;68776;44.762;37.698;2023-10-31T09:56:49;23.98;47.04
74873;HTU21D;68776;44.762;37.698;2023-10-31T09:57:50;23.98;47.02
74873;HTU21D;68776;44.762;37.698;2023-10-31T09:58:51;24.00;46.97
74873;HTU21D;68776;44.762;37.698;2023-10-31T09:59:55;24.01;46.94
74873;HTU21D;68776;44.762;37.698;2023-10-31T10:00:56;24.01;46.91
74873;HTU21D;68776;44.762;37.698;2023-10-31T10:01:58;24.04;46.86
74873;HTU21D;68776;44.762;37.698;2023-10-31T10:02:59;24.04;46.83
74873;HTU21D;68776;44.762;37.698;2023-10-31T10:04:00;24.05;46.78
74873;HTU21D;68776;44.762;37.698;2023-10-31T10:05:02;24.06;46.73
74873;HTU21D;68776;44.762;37.698;2023-10-31T10:06:03;24.09;46.70
74873;HTU21D;68776;44.762;37.698;2023-10-31T10:07:05;24.09;46.64
74873;HTU21D;68776;44.762;37.698;2023-10-31T10:08:06;24.13;46.60
74873;HTU21D;68776;44.762;37.698;2023-10-31T10:09:07;24.12;46.57
74873;HTU21D;68776;44.762;37.698;2023-10-31T10:10:12;24.14;46.52
74873;HTU21D;68776;44.762;37.698;2023-10-31T10:11:14;24.15;46.51
74873;HTU21D;68776;44.762;37.698;2023-10-31T10:12:16;24.16;46.47
74873;HTU21D;68776;44.762;37.698;2023-10-31T10:13:18;24.17;46.49
74873;HTU21D;68776;44.762;37.698;2023-10-31T10:14:19;24.18;46.44
74873;HTU21D;68776;44.762;37.698;2023-10-31T10:15:20;24.19;46.44
74873;HTU21D;68776;44.762;37.698;2023-10-31T10:16:31;24.19;46.43
74873;HTU21D;68776;44.762;37.698;2023-10-31T10:17:32;24.21;46.37
74873;HTU21D;68776;44.762;37.698;2023-10-31T10:18:35;24.23;46.34
74873;HTU21D;68776;44.762;37.698;2023-10-31T10:19:38;24.24;46.32
74873;HTU21D;68776;44.762;37.698;2023-10-31T10:20:54;24.25;46.32
74873;HTU21D;68776;44.762;37.698;2023-10-31T10:21:57;24.26;46.27
74873;HTU21D;68776;44.762;37.698;2023-10-31T10:23:03;24.28;46.25
74873;HTU21D;68776;44.762;37.698;2023-10-31T10:24:05;24.28;46.19
74873;HTU21D;68776;44.762;37.698;2023-10-31T10:25:07;24.29;46.17
74873;HTU21D;68776;44.762;37.698;2023-10-31T10:26:08;24.29;46.12
74873;HTU21D;68776;44.762;37.698;2023-10-31T10:27:09;24.32;46.10
74873;HTU21D;68776;44.762;37.698;2023-10-31T10:28:10;24.32;46.09
74873;HTU21D;68776;44.762;37.698;2023-10-31T10:29:13;24.33;46.05
74873;HTU21D;68776;44.762;37.698;2023-10-31T10:30:15;24.35;46.02
74873;HTU21D;68776;44.762;37.698;2023-10-31T10:31:16;24.35;45.78
74873;HTU21D;68776;44.762;37.698;2023-10-31T10:32:17;24.36;45.99
74873;HTU21D;68776;44.762;37.698;2023-10-31T10:33:19;24.38;45.97
74873;HTU21D;68776;44.762;37.698;2023-10-31T10:34:20;24.39;45.96
74873;HTU21D;68776;44.762;37.698;2023-10-31T10:35:21;24.40;45.91
74873;HTU21D;68776;44.762;37.698;2023-10-31T10:36:23;24.40;45.83
74873;HTU21D;68776;44.762;37.698;2023-10-31T10:37:26;24.42;45.81
74873;HTU21D;68776;44.762;37.698;2023-10-31T10:38:30;24.43;45.80
74873;HTU21D;68776;44.762;37.698;2023-10-31T10:39:33;24.45;45.77
74873;HTU21D;68776;44.762;37.698;2023-10-31T10:40:37;24.45;45.74
74873;HTU21D;68776;44.762;37.698;2023-10-31T10:41:42;24.46;45.73
74873;HTU21D;68776;44.762;37.698;2023-10-31T10:42:47;24.46;45.67
74873;HTU21D;68776;44.762;37.698;2023-10-31T10:43:50;24.48;45.64
74873;HTU21D;68776;44.762;37.698;2023-10-31T10:44:58;24.48;45.61
74873;HTU21D;68776;44.762;37.698;2023-10-31T10:46:04;24.49;45.61
74873;HTU21D;68776;44.762;37.698;2023-10-31T10:47:06;24.51;45.58
74873;HTU21D;68776;44.762;37.698;2023-10-31T10:48:13;24.51;45.51
74873;HTU21D;68776;44.762;37.698;2023-10-31T10:49:16;24.54;45.45
74873;HTU21D;68776;44.762;37.698;2023-10-31T10:50:19;24.55;45.44
74873;HTU21D;68776;44.762;37.698;2023-10-31T10:51:25;24.56;45.43
74873;HTU21D;68776;44.762;37.698;2023-10-31T10:52:33;24.57;45.44
74873;HTU21D;68776;44.762;37.698;2023-10-31T10:53:49;24.58;45.38
74873;HTU21D;68776;44.762;37.698;2023-10-31T10:55:04;24.60;45.36
74873;HTU21D;68776;44.762;37.698;2023-10-31T10:56:12;24.62;45.32
74873;HTU21D;68776;44.762;37.698;2023-10-31T10:58:40;24.66;45.23
74873;HTU21D;68776;44.762;37.698;2023-10-31T10:59:44;24.66;45.19
74873;HTU21D;68776;44.762;37.698;2023-10-31T11:00:51;24.68;45.15
74873;HTU21D;68776;44.762;37.698;2023-10-31T11:01:53;24.70;45.11
74873;HTU21D;68776;44.762;37.698;2023-10-31T11:02:56;24.71;45.09
74873;HTU21D;68776;44.762;37.698;2023-10-31T11:03:58;24.73;45.08
74873;HTU21D;68776;44.762;37.698;2023-10-31T11:04:59;24.73;45.06
74873;HTU21D;68776;44.762;37.698;2023-10-31T11:06:01;24.75;45.02
74873;HTU21D;68776;44.762;37.698;2023-10-31T11:07:03;24.76;44.96
74873;HTU21D;68776;44.762;37.698;2023-10-31T11:08:06;24.77;44.93
74873;HTU21D;68776;44.762;37.698;2023-10-31T11:09:08;24.78;44.93
74873;HTU21D;68776;44.762;37.698;2023-10-31T11:10:11;24.79;44.91
74873;HTU21D;68776;44.762;37.698;2023-10-31T11:11:12;24.80;44.87
74873;HTU21D;68776;44.762;37.698;2023-10-31T11:12:16;24.80;44.86
74873;HTU21D;68776;44.762;37.698;2023-10-31T11:13:19;24.83;44.83
74873;HTU21D;68776;44.762;37.698;2023-10-31T11:14:20;24.84;44.83
74873;HTU21D;68776;44.762;37.698;2023-10-31T11:15:24;24.85;44.82
74873;HTU21D;68776;44.762;37.698;2023-10-31T11:16:30;24.86;44.80
74873;HTU21D;68776;44.762;37.698;2023-10-31T11:17:37;24.87;44.75
74873;HTU21D;68776;44.762;37.698;2023-10-31T11:18:39;24.87;44.73
74873;HTU21D;68776;44.762;37.698;2023-10-31T11:19:40;24.88;44.70
74873;HTU21D;68776;44.762;37.698;2023-10-31T11:20:42;24.89;44.68
74873;HTU21D;68776;44.762;37.698;2023-10-31T11:22:00;24.90;44.65
74873;HTU21D;68776;44.762;37.698;2023-10-31T11:23:02;24.91;44.62
74873;HTU21D;68776;44.762;37.698;2023-10-31T11:24:07;24.92;44.60
74873;HTU21D;68776;44.762;37.698;2023-10-31T11:25:18;24.92;44.59
74873;HTU21D;68776;44.762;37.698;2023-10-31T11:26:26;24.93;44.54
74873;HTU21D;68776;44.762;37.698;2023-10-31T11:27:27;24.93;44.52
74873;HTU21D;68776;44.762;37.698;2023-10-31T11:28:28;24.94;44.52
74873;HTU21D;68776;44.762;37.698;2023-10-31T11:29:31;24.97;44.51
74873;HTU21D;68776;44.762;37.698;2023-10-31T11:30:34;24.98;44.48
74873;HTU21D;68776;44.762;37.698;2023-10-31T11:31:37;24.98;44.47
74873;HTU21D;68776;44.762;37.698;2023-10-31T11:32:38;24.98;44.46
74873;HTU21D;68776;44.762;37.698;2023-10-31T11:33:39;25.00;44.45
74873;HTU21D;68776;44.762;37.698;2023-10-31T11:34:42;24.98;44.47
74873;HTU21D;68776;44.762;37.698;2023-10-31T11:35:44;25.00;44.45
74873;HTU21D;68776;44.762;37.698;2023-10-31T11:36:51;25.00;44.42
74873;HTU21D;68776;44.762;37.698;2023-10-31T11:38:09;25.01;44.39
74873;HTU21D;68776;44.762;37.698;2023-10-31T11:41:19;25.02;44.35
74873;HTU21D;68776;44.762;37.698;2023-10-31T11:42:20;25.03;44.32
74873;HTU21D;68776;44.762;37.698;2023-10-31T11:43:22;25.04;44.30
74873;HTU21D;68776;44.762;37.698;2023-10-31T11:44:25;25.03;44.28
74873;HTU21D;68776;44.762;37.698;2023-10-31T11:46:35;25.05;44.25
74873;HTU21D;68776;44.762;37.698;2023-10-31T11:47:49;25.07;44.21
74873;HTU21D;68776;44.762;37.698;2023-10-31T11:48:54;25.05;44.19
74873;HTU21D;68776;44.762;37.698;2023-10-31T11:49:58;25.08;44.19
74873;HTU21D;68776;44.762;37.698;2023-10-31T11:50:59;25.08;44.14
74873;HTU21D;68776;44.762;37.698;2023-10-31T11:52:01;25.09;44.13
74873;HTU21D;68776;44.762;37.698;2023-10-31T11:53:04;25.10;44.15
74873;HTU21D;68776;44.762;37.698;2023-10-31T11:54:06;25.09;44.13
74873;HTU21D;68776;44.762;37.698;2023-10-31T11:55:13;25.10;44.11
74873;HTU21D;68776;44.762;37.698;2023-10-31T11:56:14;25.10;44.08
74873;HTU21D;68776;44.762;37.698;2023-10-31T11:57:28;25.12;44.08
74873;HTU21D;68776;44.762;37.698;2023-10-31T11:58:29;25.12;44.04
74873;HTU21D;68776;44.762;37.698;2023-10-31T11:59:38;25.13;44.03
74873;HTU21D;68776;44.762;37.698;2023-10-31T12:00:39;25.14;44.02
74873;HTU21D;68776;44.762;37.698;2023-10-31T12:01:47;25.14;43.98
74873;HTU21D;68776;44.762;37.698;2023-10-31T12:03:01;25.15;43.92
74873;HTU21D;68776;44.762;37.698;2023-10-31T12:04:02;25.17;43.90
74873;HTU21D;68776;44.762;37.698;2023-10-31T12:05:12;25.15;43.88
74873;HTU21D;68776;44.762;37.698;2023-10-31T12:06:15;25.16;43.83
74873;HTU21D;68776;44.762;37.698;2023-10-31T12:07:18;25.17;43.80
74873;HTU21D;68776;44.762;37.698;2023-10-31T12:08:29;25.17;43.78
74873;HTU21D;68776;44.762;37.698;2023-10-31T12:09:31;25.17;43.77
74873;HTU21D;68776;44.762;37.698;2023-10-31T12:10:32;25.19;43.72
74873;HTU21D;68776;44.762;37.698;2023-10-31T12:11:44;25.19;43.73
74873;HTU21D;68776;44.762;37.698;2023-10-31T12:12:45;25.18;43.67
74873;HTU21D;68776;44.762;37.698;2023-10-31T12:14:00;25.18;43.61
74873;HTU21D;68776;44.762;37.698;2023-10-31T12:15:08;25.20;43.57
74873;HTU21D;68776;44.762;37.698;2023-10-31T12:16:10;25.19;43.57
74873;HTU21D;68776;44.762;37.698;2023-10-31T12:17:11;25.19;43.52
74873;HTU21D;68776;44.762;37.698;2023-10-31T12:18:12;25.19;43.50
74873;HTU21D;68776;44.762;37.698;2023-10-31T12:19:13;25.21;43.49
74873;HTU21D;68776;44.762;37.698;2023-10-31T12:20:15;25.21;43.48
74873;HTU21D;68776;44.762;37.698;2023-10-31T12:21:19;25.20;43.49
74873;HTU21D;68776;44.762;37.698;2023-10-31T12:22:20;25.21;43.46
74873;HTU21D;68776;44.762;37.698;2023-10-31T12:23:22;25.22;43.46
74873;HTU21D;68776;44.762;37.698;2023-10-31T12:24:23;25.22;43.49
74873;HTU21D;68776;44.762;37.698;2023-10-31T12:25:24;25.21;43.50
74873;HTU21D;68776;44.762;37.698;2023-10-31T12:26:26;25.22;43.48
74873;HTU21D;68776;44.762;37.698;2023-10-31T12:28:45;25.22;43.51
74873;HTU21D;68776;44.762;37.698;2023-10-31T12:29:47;25.22;43.48
74873;HTU21D;68776;44.762;37.698;2023-10-31T12:30:52;25.22;43.47
74873;HTU21D;68776;44.762;37.698;2023-10-31T12:31:55;25.22;43.48
74873;HTU21D;68776;44.762;37.698;2023-10-31T12:32:58;25.22;43.47
74873;HTU21D;68776;44.762;37.698;2023-10-31T12:34:05;25.24;43.49
74873;HTU21D;68776;44.762;37.698;2023-10-31T12:35:06;25.23;43.48
74873;HTU21D;68776;44.762;37.698;2023-10-31T12:36:08;25.23;43.47
74873;HTU21D;68776;44.762;37.698;2023-10-31T12:37:09;25.24;43.48
74873;HTU21D;68776;44.762;37.698;2023-10-31T12:38:11;25.24;43.46
74873;HTU21D;68776;44.762;37.698;2023-10-31T12:39:13;25.25;43.42
74873;HTU21D;68776;44.762;37.698;2023-10-31T12:40:18;25.24;43.40
74873;HTU21D;68776;44.762;37.698;2023-10-31T12:41:19;25.25;43.40
74873;HTU21D;68776;44.762;37.698;2023-10-31T12:42:22;25.25;43.41
74873;HTU21D;68776;44.762;37.698;2023-10-31T12:43:24;25.25;43.42
74873;HTU21D;68776;44.762;37.698;2023-10-31T12:44:26;25.25;43.41
74873;HTU21D;68776;44.762;37.698;2023-10-31T12:45:28;25.27;43.39
74873;HTU21D;68776;44.762;37.698;2023-10-31T12:46:30;0.00;43.39
74873;HTU21D;68776;44.762;37.698;2023-10-31T12:47:31;25.28;43.39
74873;HTU21D;68776;44.762;37.698;2023-10-31T12:48:32;25.28;43.38
74873;HTU21D;68776;44.762;37.698;2023-10-31T12:49:33;25.28;43.33
74873;HTU21D;68776;44.762;37.698;2023-10-31T12:50:36;25.28;43.32
74873;HTU21D;68776;44.762;37.698;2023-10-31T12:51:59;25.29;43.33
74873;HTU21D;68776;44.762;37.698;2023-10-31T12:53:01;25.29;43.32
74873;HTU21D;68776;44.762;37.698;2023-10-31T12:54:04;25.28;43.29
74873;HTU21D;68776;44.762;37.698;2023-10-31T12:55:15;25.29;43.30
74873;HTU21D;68776;44.762;37.698;2023-10-31T12:56:36;25.29;46.73
74873;HTU21D;68776;44.762;37.698;2023-10-31T12:57:40;25.29;43.27
74873;HTU21D;68776;44.762;37.698;2023-10-31T12:58:41;25.30;43.24
74873;HTU21D;68776;44.762;37.698;2023-10-31T12:59:42;25.29;43.23
74873;HTU21D;68776;44.762;37.698;2023-10-31T13:00:43;25.30;43.21
74873;HTU21D;68776;44.762;37.698;2023-10-31T13:01:45;25.30;43.19
74873;HTU21D;68776;44.762;37.698;2023-10-31T13:02:46;25.31;43.20
74873;HTU21D;68776;44.762;37.698;2023-10-31T13:03:50;25.31;43.14
74873;HTU21D;68776;44.762;37.698;2023-10-31T13:04:51;25.31;43.16
74873;HTU21D;68776;44.762;37.698;2023-10-31T13:05:53;25.31;43.13
74873;HTU21D;68776;44.762;37.698;2023-10-31T13:06:58;25.31;43.14
74873;HTU21D;68776;44.762;37.698;2023-10-31T13:08:00;25.32;43.15
74873;HTU21D;68776;44.762;37.698;2023-10-31T13:09:04;25.31;43.16
74873;HTU21D;68776;44.762;37.698;2023-10-31T13:10:12;25.31;43.14
74873;HTU21D;68776;44.762;37.698;2023-10-31T13:11:16;25.32;43.13
74873;HTU21D;68776;44.762;37.698;2023-10-31T13:12:18;25.32;43.13
74873;HTU21D;68776;44.762;37.698;2023-10-31T13:13:19;25.31;43.10
74873;HTU21D;68776;44.762;37.698;2023-10-31T13:14:20;25.31;43.09
74873;HTU21D;68776;44.762;37.698;2023-10-31T13:15:22;25.30;43.07
74873;HTU21D;68776;44.762;37.698;2023-10-31T13:16:24;25.31;43.09
74873;HTU21D;68776;44.762;37.698;2023-10-31T13:17:27;25.30;43.06
74873;HTU21D;68776;44.762;37.698;2023-10-31T13:18:28;25.30;43.06
74873;HTU21D;68776;44.762;37.698;2023-10-31T13:19:29;25.30;43.02
74873;HTU21D;68776;44.762;37.698;2023-10-31T13:20:30;25.29;42.97
74873;HTU21D;68776;44.762;37.698;2023-10-31T13:21:32;25.29;42.88
74873;HTU21D;68776;44.762;37.698;2023-10-31T13:22:33;25.28;42.87
74873;HTU21D;68776;44.762;37.698;2023-10-31T13:23:34;25.28;42.90
74873;HTU21D;68776;44.762;37.698;2023-10-31T13:24:35;25.25;42.87
74873;HTU21D;68776;44.762;37.698;2023-10-31T13:25:36;25.25;42.84
74873;HTU21D;68776;44.762;37.698;2023-10-31T13:26:37;25.24;42.84
74873;HTU21D;68776;44.762;37.698;2023-10-31T13:27:40;25.24;42.81
74873;HTU21D;68776;44.762;37.698;2023-10-31T13:28:42;25.23;42.79
74873;HTU21D;68776;44.762;37.698;2023-10-31T13:29:43;25.23;42.78
74873;HTU21D;68776;44.762;37.698;2023-10-31T13:30:46;25.22;42.78
74873;HTU21D;68776;44.762;37.698;2023-10-31T13:31:49;25.21;42.77
74873;HTU21D;68776;44.762;37.698;2023-10-31T13:32:49;25.21;42.77
74873;HTU21D;68776;44.762;37.698;2023-10-31T13:33:50;25.19;42.75
74873;HTU21D;68776;44.762;37.698;2023-10-31T13:34:51;25.21;42.75
74873;HTU21D;68776;44.762;37.698;2023-10-31T13:35:52;25.19;42.73
74873;HTU21D;68776;44.762;37.698;2023-10-31T13:36:53;25.18;42.80
74873;HTU21D;68776;44.762;37.698;2023-10-31T13:37:54;25.14;42.74
74873;HTU21D;68776;44.762;37.698;2023-10-31T13:38:55;25.17;42.78
74873;HTU21D;68776;44.762;37.698;2023-10-31T13:39:56;25.16;42.79
74873;HTU21D;68776;44.762;37.698;2023-10-31T13:40:57;25.17;42.81
74873;HTU21D;68776;44.762;37.698;2023-10-31T13:41:58;25.15;42.77
74873;HTU21D;68776;44.762;37.698;2023-10-31T13:42:59;25.15;42.74
74873;HTU21D;68776;44.762;37.698;2023-10-31T13:44:00;25.15;42.73
74873;HTU21D;68776;44.762;37.698;2023-10-31T13:45:04;25.15;42.68
74873;HTU21D;68776;44.762;37.698;2023-10-31T13:46:05;25.13;42.67
74873;HTU21D;68776;44.762;37.698;2023-10-31T13:47:07;25.14;42.67
74873;HTU21D;68776;44.762;37.698;2023-10-31T13:48:08;25.12;42.65
74873;HTU21D;68776;44.762;37.698;2023-10-31T13:49:10;25.10;42.65
74873;HTU21D;68776;44.762;37.698;2023-10-31T13:50:13;25.12;42.67
74873;HTU21D;68776;44.762;37.698;2023-10-31T13:51:14;25.09;42.66
74873;HTU21D;68776;44.762;37.698;2023-10-31T13:52:15;25.10;42.65
74873;HTU21D;68776;44.762;37.698;2023-10-31T13:53:16;25.10;42.63
74873;HTU21D;68776;44.762;37.698;2023-10-31T13:54:18;25.09;42.58
74873;HTU21D;68776;44.762;37.698;2023-10-31T13:55:20;25.09;42.60
74873;HTU21D;68776;44.762;37.698;2023-10-31T13:56:20;25.08;42.60
74873;HTU21D;68776;44.762;37.698;2023-10-31T13:57:21;25.08;42.59
74873;HTU21D;68776;44.762;37.698;2023-10-31T13:58:22;25.07;42.65
74873;HTU21D;68776;44.762;37.698;2023-10-31T13:59:23;25.06;42.62
74873;HTU21D;68776;44.762;37.698;2023-10-31T14:00:24;25.06;42.63
74873;HTU21D;68776;44.762;37.698;2023-10-31T14:01:25;25.05;42.62
74873;HTU21D;68776;44.762;37.698;2023-10-31T14:02:26;25.04;42.66
74873;HTU21D;68776;44.762;37.698;2023-10-31T14:03:29;0.00;42.66
74873;HTU21D;68776;44.762;37.698;2023-10-31T14:04:30;25.03;42.66
74873;HTU21D;68776;44.762;37.698;2023-10-31T14:05:31;25.03;42.63
74873;HTU21D;68776;44.762;37.698;2023-10-31T14:06:32;25.01;42.64
74873;HTU21D;68776;44.762;37.698;2023-10-31T14:07:33;25.01;42.61
74873;HTU21D;68776;44.762;37.698;2023-10-31T14:08:34;25.02;42.63
74873;HTU21D;68776;44.762;37.698;2023-10-31T14:09:35;25.00;42.64
74873;HTU21D;68776;44.762;37.698;2023-10-31T14:10:36;25.00;42.65